Ashmore, Illinois
Current Conditions -  °F | °C
As of 11:53 PM on Saturday 25 Oct 2014 (Local Time) from KMTO Reporting Station
Clear Clear  
Wind Chill: 52°   Ceiling: Unl
Heat Index: 52°   Visibility: 10mi
Dew Point: 43°   Wind: 7mph
Humidity: 71%   Direction: 300°WNW
Pressure: 30.01"   Gusts: NA
Location:  39.53°N, 88.02°W
Report Text: KMTO 260453Z AUTO 30006KT 10SM CLR 11/06 A3001 RMK AO2 SLP159 T01110061
Loading
Personal Weather Stations






























Interactive Weather Map
Tropical Storm Tracking
New forecast layout! Learn more

10-Day Weather Forecast

Advertisements
Track Severe Weather on mobile